Time;durP1;ratioP1;P1;durP2;ratioP2;P2;SDS_P1;SDS_P2;PMS_P1;PMS_P2;Temp;Humidity;BMP_temperature;BMP_pressure;BME280_temperature;BME280_humidity;BME280_pressure;Samples;Min_cycle;Max_cycle;Signal;HPM_P1;HPM_P2
2021/12/05 00:19:04;;;;;;;0.20;0.10;;;;;;;5.38;100.00;98877.50;4961651;28;20479;-50
2021/12/05 00:23:41;;;;;;;0.20;0.10;;;;;;;5.47;100.00;98895.63;4955244;28;20447;-50
2021/12/05 00:26:13;;;;;;;0.20;0.20;;;;;;;5.42;100.00;98891.41;4973265;28;20449;-49
2021/12/05 00:28:59;;;;;;;0.20;0.10;;;;;;;5.48;100.00;98896.50;4966567;28;20471;-50
2021/12/05 01:17:33;;;;;;;0.20;0.10;;;;;;;5.67;100.00;98923.16;4963364;28;20483;-50
2021/12/05 01:20:02;;;;;;;0.20;0.20;;;;;;;5.65;100.00;98924.06;4967860;28;20447;-50
2021/12/05 01:22:31;;;;;;;0.20;0.10;;;;;;;5.66;100.00;98917.03;4970333;28;20509;-50
2021/12/05 01:25:20;;;;;;;0.20;0.10;;;;;;;5.62;100.00;98921.53;4968145;28;20455;-50
2021/12/05 01:28:13;;;;;;;0.20;0.10;;;;;;;5.57;100.00;98923.44;4956596;28;20853;-50
2021/12/05 01:33:41;;;;;;;0.20;0.10;;;;;;;5.65;100.00;98913.53;4973717;28;20879;-50
2021/12/05 01:36:23;;;;;;;0.20;0.10;;;;;;;5.62;100.00;98918.03;4964041;28;20455;-50
2021/12/05 01:53:11;;;;;;;0.20;0.10;;;;;;;5.45;100.00;98915.91;4943090;29;20506;-49
2021/12/05 02:39:12;;;;;;;0.20;0.10;;;;;;;4.38;100.00;98878.56;4973933;28;20545;-49
2021/12/05 02:41:45;;;;;;;0.83;0.83;;;;;;;4.20;100.00;98876.44;4968249;28;20446;-49
2021/12/05 02:44:24;;;;;;;0.20;0.10;;;;;;;4.19;100.00;98872.06;4969497;28;20825;-50
2021/12/05 02:46:57;;;;;;;0.20;0.10;;;;;;;4.21;100.00;98871.13;4971702;28;20505;-50
2021/12/05 02:49:25;;;;;;;0.20;0.10;;;;;;;4.17;100.00;98874.75;4972771;28;21014;-50
2021/12/05 02:51:57;;;;;;;0.20;0.10;;;;;;;4.22;100.00;98871.97;4970182;28;20513;-50
2021/12/05 02:54:35;;;;;;;0.20;0.10;;;;;;;4.19;100.00;98872.06;4973605;28;20482;-49
2021/12/05 02:57:04;;;;;;;0.20;0.10;;;;;;;4.20;100.00;98873.78;4966218;28;20510;-50
2021/12/05 03:02:04;;;;;;;0.20;0.10;;;;;;;4.27;100.00;98863.09;4966992;28;20505;-50
2021/12/05 03:04:33;;;;;;;0.20;0.10;;;;;;;4.17;100.00;98864.22;4971990;28;20943;-50
2021/12/05 03:07:04;;;;;;;0.20;0.10;;;;;;;4.18;100.00;98860.69;4967245;28;20479;-50
2021/12/05 03:09:32;;;;;;;0.20;0.20;;;;;;;4.27;100.00;98849.09;4962819;28;20458;-49
2021/12/05 03:12:00;;;;;;;0.20;0.10;;;;;;;4.22;100.00;98846.56;4967348;28;20455;-50
2021/12/05 03:14:27;;;;;;;0.20;0.10;;;;;;;4.21;100.00;98849.22;4963795;28;20587;-50
2021/12/05 03:16:54;;;;;;;0.20;0.10;;;;;;;4.20;100.00;98839.63;4969216;28;20988;-49
2021/12/05 03:19:21;;;;;;;0.20;0.10;;;;;;;4.31;100.00;98840.19;4973876;28;20463;-50
2021/12/05 03:21:50;;;;;;;0.20;0.10;;;;;;;4.38;100.00;98845.22;4968592;28;20455;-50
2021/12/05 03:24:21;;;;;;;0.20;0.20;;;;;;;4.35;100.00;98842.69;4969503;28;20502;-49
2021/12/05 03:26:51;;;;;;;0.20;0.10;;;;;;;4.50;100.00;98844.03;4969026;28;20459;-50
2021/12/05 03:29:20;;;;;;;0.20;0.10;;;;;;;4.42;100.00;98849.53;4971174;28;21014;-50
2021/12/05 03:31:48;;;;;;;0.20;0.10;;;;;;;4.49;100.00;98846.72;4967584;28;20459;-50
2021/12/05 03:34:17;;;;;;;0.20;0.10;;;;;;;4.64;100.00;98841.03;4966518;28;20483;-50
2021/12/05 03:36:47;;;;;;;0.20;0.10;;;;;;;4.58;100.00;98838.59;4965974;28;20474;-52
2021/12/05 03:39:16;;;;;;;0.20;0.20;;;;;;;4.63;100.00;98850.69;4957915;28;20956;-50
2021/12/05 03:41:44;;;;;;;0.20;0.10;;;;;;;4.70;100.00;98844.38;4972739;28;20455;-50
2021/12/05 03:44:13;;;;;;;0.20;0.10;;;;;;;4.76;100.00;98848.59;4967345;28;20455;-50
2021/12/05 03:46:41;;;;;;;0.20;0.10;;;;;;;4.83;100.00;98846.66;4973674;28;20458;-49
2021/12/05 03:49:11;;;;;;;0.20;0.10;;;;;;;4.88;100.00;98857.91;4969176;28;20461;-49
2021/12/05 03:51:42;;;;;;;0.20;0.10;;;;;;;4.93;100.00;98858.63;4969519;28;20458;-49
2021/12/05 03:54:09;;;;;;;0.20;0.20;;;;;;;4.93;100.00;98856.00;4968400;28;20991;-50
2021/12/05 03:56:37;;;;;;;0.20;0.10;;;;;;;5.03;100.00;98858.31;4966781;28;20470;-50
2021/12/05 03:59:07;;;;;;;0.20;0.10;;;;;;;5.08;100.00;98857.34;4967700;28;20458;-50
2021/12/05 04:01:35;;;;;;;0.20;0.20;;;;;;;5.15;100.00;98865.00;4971836;28;20455;-50
2021/12/05 04:04:03;;;;;;;0.20;0.10;;;;;;;5.12;100.00;98859.81;4969278;28;20477;-50
2021/12/05 04:06:30;;;;;;;0.20;0.10;;;;;;;5.21;100.00;98856.94;4965212;28;20454;-49
2021/12/05 04:08:59;;;;;;;0.20;0.10;;;;;;;5.17;100.00;98860.53;4961819;28;20475;-50
2021/12/05 04:11:33;;;;;;;0.20;0.20;;;;;;;5.23;100.00;98864.78;4969344;28;20459;-50
2021/12/05 04:14:01;;;;;;;0.20;0.10;;;;;;;5.21;100.00;98862.19;4966983;28;20528;-50
2021/12/05 04:16:29;;;;;;;0.20;0.20;;;;;;;5.16;100.00;98860.59;4970401;28;20513;-50
2021/12/05 04:18:57;;;;;;;0.20;0.10;;;;;;;5.24;100.00;98864.72;4969185;28;20481;-49
2021/12/05 04:21:24;;;;;;;0.20;0.10;;;;;;;5.33;100.00;98860.94;4974048;28;20461;-49
2021/12/05 04:23:51;;;;;;;0.30;0.20;;;;;;;5.30;100.00;98861.91;4976126;28;20458;-50
2021/12/05 04:26:19;;;;;;;0.20;0.20;;;;;;;5.28;100.00;98860.22;4969239;28;20458;-50
2021/12/05 04:28:46;;;;;;;0.20;0.10;;;;;;;5.34;100.00;98847.75;4976703;28;20485;-50
2021/12/05 04:31:15;;;;;;;0.20;0.10;;;;;;;5.28;100.00;98866.34;4970184;28;20598;-49
2021/12/05 04:33:42;;;;;;;0.20;0.20;;;;;;;5.26;100.00;98856.78;4973038;28;21033;-50
2021/12/05 04:36:08;;;;;;;0.20;0.10;;;;;;;5.51;100.00;98854.25;4973370;28;20536;-50
2021/12/05 04:38:35;;;;;;;0.20;0.10;;;;;;;5.34;100.00;98857.38;4970579;28;20552;-50
2021/12/05 04:41:03;;;;;;;0.20;0.20;;;;;;;5.33;100.00;98861.78;4963486;28;20451;-50
2021/12/05 04:43:37;;;;;;;0.30;0.20;;;;;;;5.29;100.00;98865.44;4976587;28;20450;-50
2021/12/05 04:46:20;;;;;;;0.20;0.10;;;;;;;5.33;100.00;98860.94;4963172;28;20501;-50
2021/12/05 04:48:50;;;;;;;0.20;0.10;;;;;;;5.26;100.00;98868.19;4974617;28;20589;-50
2021/12/05 04:51:20;;;;;;;0.20;0.10;;;;;;;5.27;100.00;98859.38;4963000;28;20821;-49
2021/12/05 04:53:47;;;;;;;0.20;0.10;;;;;;;5.33;100.00;98861.78;4969801;28;21084;-50
2021/12/05 04:56:14;;;;;;;0.20;0.10;;;;;;;5.35;100.00;98869.69;4969909;28;20454;-50
2021/12/05 04:58:41;;;;;;;2.20;2.10;;;;;;;5.28;100.00;98866.34;4974671;28;20478;-50
2021/12/05 05:01:07;;;;;;;0.20;0.10;;;;;;;5.26;100.00;98860.28;4974195;28;20458;-51
2021/12/05 05:03:35;;;;;;;0.20;0.20;;;;;;;5.37;100.00;98865.22;4964874;28;20461;-50
2021/12/05 05:06:17;;;;;;;0.20;0.10;;;;;;;5.36;100.00;98866.13;4974105;28;20458;-50
2021/12/05 05:08:48;;;;;;;0.20;0.17;;;;;;;5.35;100.00;98861.78;4971027;28;20840;-50
2021/12/05 05:11:16;;;;;;;0.20;0.10;;;;;;;5.41;100.00;98853.69;4968505;28;20459;-50
2021/12/05 05:13:46;;;;;;;0.20;0.20;;;;;;;5.42;100.00;98852.75;4969428;28;20450;-50
2021/12/05 05:16:15;;;;;;;0.20;0.10;;;;;;;5.45;100.00;98859.69;4974715;28;20451;-50
2021/12/05 05:18:56;;;;;;;0.20;0.20;;;;;;;5.38;100.00;98851.13;4972474;28;20470;-50
2021/12/05 05:30:08;;;;;;;0.20;0.10;;;;;;;5.22;100.00;98842.00;4973999;28;20794;-50
2021/12/05 05:50:39;;;;;;;0.20;0.10;;;;;;;4.96;100.00;98837.50;4973418;28;20489;-48
2021/12/05 05:53:07;;;;;;;0.20;0.10;;;;;;;4.96;100.00;98834.88;4969732;28;20822;-49
2021/12/05 05:55:35;;;;;;;0.20;0.10;;;;;;;4.85;100.00;98837.81;4972311;28;20482;-48
2021/12/05 05:58:08;;;;;;;0.20;0.10;;;;;;;4.88;100.00;98842.09;4969408;28;20479;-48
2021/12/05 06:00:42;;;;;;;0.20;0.10;;;;;;;4.58;100.00;98849.09;4972029;28;20446;-48
2021/12/05 06:03:22;;;;;;;0.20;0.10;;;;;;;4.68;100.00;98842.69;4975907;28;20469;-49
2021/12/05 06:05:54;;;;;;;0.20;0.10;;;;;;;4.50;100.00;98851.94;4966099;28;20482;-49
2021/12/05 06:08:24;;;;;;;0.20;0.13;;;;;;;4.52;100.00;98850.13;4972089;28;20541;-48
2021/12/05 06:10:53;;;;;;;0.20;0.20;;;;;;;4.65;100.00;98853.28;4969854;28;20486;-50
2021/12/05 06:13:21;;;;;;;0.20;0.10;;;;;;;4.62;100.00;98850.75;4969009;28;20455;-48
2021/12/05 06:15:48;;;;;;;0.20;0.10;;;;;;;4.70;100.00;98848.78;4975980;28;20497;-48
2021/12/05 06:18:15;;;;;;;0.20;0.10;;;;;;;4.73;100.00;98843.41;4969272;28;20478;-52
2021/12/05 06:20:43;;;;;;;0.20;0.10;;;;;;;4.81;100.00;98854.59;4974712;28;20462;-48
2021/12/05 06:23:11;;;;;;;0.20;0.10;;;;;;;4.82;100.00;98850.19;4970813;28;20454;-48
2021/12/05 06:25:40;;;;;;;0.20;0.10;;;;;;;4.78;100.00;98852.03;4971057;28;20454;-48
2021/12/05 06:28:11;;;;;;;0.20;0.10;;;;;;;4.75;100.00;98858.25;4973032;28;20532;-48
2021/12/05 06:41:21;;;;;;;0.20;0.10;;;;;;;4.75;100.00;98870.53;4972015;28;20462;-47
2021/12/05 06:48:53;;;;;;;0.20;0.10;;;;;;;4.70;100.00;98872.44;4971161;28;20475;-48
2021/12/05 06:51:24;;;;;;;0.20;0.20;;;;;;;4.64;100.00;98864.72;4968837;28;20952;-48
2021/12/05 06:53:51;;;;;;;0.20;0.10;;;;;;;4.60;100.00;98876.22;4971092;28;20492;-49
2021/12/05 06:56:18;;;;;;;0.20;0.10;;;;;;;4.60;100.00;98878.88;4974220;28;20891;-48
2021/12/05 06:58:45;;;;;;;0.20;0.10;;;;;;;4.54;100.00;98879.91;4970961;28;20529;-48
2021/12/05 07:01:12;;;;;;;0.20;0.10;;;;;;;4.59;100.00;98883.28;4973615;28;20458;-48
2021/12/05 07:03:43;;;;;;;0.20;0.10;;;;;;;4.59;100.00;98885.91;4969465;28;20538;-48
2021/12/05 07:06:34;;;;;;;0.20;0.10;;;;;;;4.55;100.00;98886.03;4969916;28;20452;-48
2021/12/05 07:09:05;;;;;;;0.20;0.10;;;;;;;4.52;100.00;98892.22;4969355;28;20505;-48
2021/12/05 07:11:40;;;;;;;0.20;0.10;;;;;;;4.57;100.00;98894.75;4973461;28;20505;-48
2021/12/05 07:22:14;;;;;;;0.20;0.10;;;;;;;4.63;100.00;98913.84;4971547;28;20454;-48
2021/12/05 07:24:58;;;;;;;0.20;0.10;;;;;;;4.36;100.00;98922.47;4966943;28;20454;-48
2021/12/05 07:43:52;;;;;;;0.20;0.10;;;;;;;4.85;100.00;98943.09;4966022;28;20875;-48
2021/12/05 07:46:19;;;;;;;0.20;0.10;;;;;;;4.90;100.00;98946.47;4968796;28;20451;-49
2021/12/05 07:48:47;;;;;;;0.20;0.10;;;;;;;4.92;100.00;98947.28;4972811;28;20777;-48
2021/12/05 07:57:02;;;;;;;0.20;0.10;;;;;;;5.13;100.00;98944.97;4970005;28;20952;-48
2021/12/05 08:15:59;;;;;;;0.20;0.10;;;;;;;5.26;100.00;98939.31;4965843;28;20483;-49
2021/12/05 08:18:27;;;;;;;0.20;0.20;;;;;;;5.33;100.00;98942.59;4968734;28;20494;-50
2021/12/05 08:20:55;;;;;;;0.20;0.10;;;;;;;5.37;100.00;98952.16;4970577;28;20454;-50
2021/12/05 08:23:23;;;;;;;0.20;0.10;;;;;;;5.38;100.00;98945.13;4964766;28;20509;-50
2021/12/05 09:39:45;;;;;;;0.20;0.20;;;;;;;6.03;100.00;98989.72;4970845;28;20521;-49
2021/12/05 10:01:25;;;;;;;0.20;0.20;;;;;;;6.83;100.00;98987.06;4969209;28;20481;-49
2021/12/05 10:12:50;;;;;;;0.30;0.20;;;;;;;7.13;100.00;98979.88;4967242;28;20458;-49
2021/12/05 10:27:24;;;;;;;0.20;0.20;;;;;;;7.15;100.00;98994.81;4975117;28;20447;-49
2021/12/05 10:38:35;;;;;;;0.20;0.20;;;;;;;6.86;100.00;99007.25;4974453;28;20557;-49
2021/12/05 10:43:55;;;;;;;0.20;0.20;;;;;;;6.87;100.00;99008.13;4970087;28;20451;-49
2021/12/05 10:46:25;;;;;;;0.30;0.20;;;;;;;6.87;100.00;99000.19;4955665;28;20439;-49
2021/12/05 10:48:55;;;;;;;0.20;0.20;;;;;;;6.89;100.00;98995.72;4970957;28;20475;-49
2021/12/05 10:51:27;;;;;;;0.20;0.20;;;;;;;6.79;100.00;98995.16;4974416;28;20454;-50
2021/12/05 10:53:56;;;;;;;0.30;0.20;;;;;;;6.86;99.37;98983.50;4974952;28;20450;-49
2021/12/05 10:56:33;;;;;;;0.20;0.20;;;;;;;6.94;99.51;98980.56;4961758;28;20498;-49
2021/12/05 10:59:09;;;;;;;0.20;0.10;;;;;;;6.94;100.00;98988.47;4974490;28;20933;-49
2021/12/05 11:01:56;;;;;;;0.70;0.70;;;;;;;6.91;100.00;98980.66;4970607;28;20957;-49
2021/12/05 11:04:27;;;;;;;0.20;0.20;;;;;;;6.95;100.00;98982.28;4955832;28;20470;-49
2021/12/05 11:07:01;;;;;;;0.30;0.20;;;;;;;6.99;99.92;98979.50;4966430;28;20467;-49
2021/12/05 11:09:40;;;;;;;0.20;0.20;;;;;;;6.97;99.86;98983.94;4970206;28;20447;-50
2021/12/05 11:12:19;;;;;;;0.20;0.20;;;;;;;7.04;100.00;98979.34;4974311;28;20446;-49
2021/12/05 11:14:50;;;;;;;0.20;0.20;;;;;;;7.00;100.00;98980.38;4968462;28;20459;-48
2021/12/05 11:17:38;;;;;;;0.27;0.20;;;;;;;7.13;99.56;98981.66;4958626;28;20546;-49
2021/12/05 11:20:28;;;;;;;0.23;0.20;;;;;;;7.18;99.82;98979.69;4962473;28;20463;-49
2021/12/05 11:22:55;;;;;;;0.20;0.10;;;;;;;7.30;99.03;98975.75;4957948;28;20455;-49
2021/12/05 11:25:28;;;;;;;0.20;0.20;;;;;;;7.34;98.98;98969.44;4966669;28;21033;-49
2021/12/05 11:27:58;;;;;;;0.20;0.10;;;;;;;7.31;98.15;98972.19;4960703;28;20999;-49
2021/12/05 11:30:32;;;;;;;0.20;0.20;;;;;;;7.28;97.58;98970.53;4954784;28;20444;-51
2021/12/05 11:33:07;;;;;;;0.20;0.10;;;;;;;7.24;97.90;98968.91;4954562;28;20459;-49
2021/12/05 11:35:42;;;;;;;0.20;0.20;;;;;;;7.36;98.64;98965.81;4984909;28;20498;-49
2021/12/05 11:38:27;;;;;;;0.20;0.20;;;;;;;7.30;98.08;98960.75;4998093;23;20482;-48
2021/12/05 11:40:58;;;;;;;0.30;0.20;;;;;;;7.50;97.88;98969.72;5046785;28;20455;-48
2021/12/05 11:43:35;;;;;;;0.20;0.10;;;;;;;7.70;97.21;98967.19;5041771;28;20451;-49
2021/12/05 11:46:22;;;;;;;0.30;0.20;;;;;;;7.86;96.47;98965.69;5039676;28;20455;-49
2021/12/05 11:48:51;;;;;;;0.20;0.20;;;;;;;7.95;93.26;98962.69;5040772;28;20846;-49
2021/12/05 11:51:33;;;;;;;0.30;0.20;;;;;;;8.16;92.90;98966.25;5035249;28;21180;-49
2021/12/05 11:54:09;;;;;;;0.30;0.17;;;;;;;7.76;93.75;98966.94;5030340;28;20464;-48
2021/12/05 11:57:06;;;;;;;0.30;0.20;;;;;;;7.63;95.05;98960.41;5035365;28;20491;-48
2021/12/05 11:59:43;;;;;;;0.23;0.20;;;;;;;7.59;93.96;98972.88;5032595;28;20541;-48
2021/12/05 12:02:10;;;;;;;0.30;0.20;;;;;;;7.74;94.37;98979.38;5026038;28;21005;-49
2021/12/05 12:04:55;;;;;;;0.30;0.20;;;;;;;7.57;95.15;98969.44;5037208;28;20448;-48
2021/12/05 12:07:38;;;;;;;0.30;0.20;;;;;;;7.46;94.79;98976.03;5030361;28;20463;-48
2021/12/05 12:10:13;;;;;;;0.30;0.20;;;;;;;7.47;95.50;98973.34;5031763;28;20476;-48
2021/12/05 12:12:46;;;;;;;0.30;0.20;;;;;;;7.52;94.60;98973.16;5031987;28;20443;-48
2021/12/05 12:15:15;;;;;;;0.30;0.20;;;;;;;7.49;94.54;98966.22;5032093;28;21015;-48
2021/12/05 12:17:44;;;;;;;0.30;0.20;;;;;;;7.55;95.44;98968.66;5034983;28;20448;-48
2021/12/05 12:20:21;;;;;;;0.30;0.20;;;;;;;7.55;95.33;98966.00;5034405;28;20834;-49
2021/12/05 12:22:54;;;;;;;0.30;0.20;;;;;;;7.58;94.75;98965.00;5029863;28;20824;-49
2021/12/05 12:25:26;;;;;;;0.30;0.20;;;;;;;7.62;96.00;98967.47;5032805;28;20461;-48
2021/12/05 12:27:53;;;;;;;0.30;0.20;;;;;;;7.70;94.97;98961.91;5031112;28;20485;-49
2021/12/05 12:30:25;;;;;;;0.30;0.20;;;;;;;7.61;94.58;98967.53;5036507;28;20959;-48
2021/12/05 12:33:10;;;;;;;0.30;0.20;;;;;;;7.65;95.41;98967.34;5037745;28;20508;-48
2021/12/05 12:35:38;;;;;;;0.30;0.20;;;;;;;7.71;95.32;98964.50;5043465;28;20451;-48
2021/12/05 12:38:17;;;;;;;0.30;0.20;;;;;;;7.69;95.01;98957.53;5039875;28;20485;-48
2021/12/05 12:40:52;;;;;;;0.30;0.20;;;;;;;7.63;94.44;98949.81;5037012;28;20832;-49
2021/12/05 12:43:40;;;;;;;0.30;0.20;;;;;;;7.70;94.47;98956.63;5029482;28;20447;-49
2021/12/05 12:46:25;;;;;;;0.30;0.20;;;;;;;7.80;94.68;98957.09;5049128;28;20455;-49
2021/12/05 12:49:20;;;;;;;0.30;0.20;;;;;;;7.54;94.41;98958.09;5040771;28;20468;-49
2021/12/05 12:52:04;;;;;;;0.30;0.20;;;;;;;7.48;94.91;98967.13;5028876;28;20448;-48
2021/12/05 12:54:48;;;;;;;0.30;0.20;;;;;;;7.43;94.69;98962.03;5025524;28;20448;-49
2021/12/05 12:57:19;;;;;;;0.30;0.20;;;;;;;7.43;94.88;98964.66;5035932;28;20483;-48
2021/12/05 13:00:00;;;;;;;0.30;0.20;;;;;;;7.51;93.54;98966.16;5035296;28;20485;-48
2021/12/05 13:02:59;;;;;;;0.30;0.20;;;;;;;7.45;95.50;98974.31;5050698;28;20458;-48
2021/12/05 13:11:13;;;;;;;0.27;0.17;;;;;;;7.56;95.53;98965.06;5039832;28;20495;-48
2021/12/05 13:13:42;;;;;;;0.30;0.20;;;;;;;7.55;96.17;98957.22;5035279;28;20502;-48
2021/12/05 13:16:16;;;;;;;0.30;0.20;;;;;;;7.61;95.20;98962.25;5035406;28;20487;-47
2021/12/05 13:18:47;;;;;;;0.20;0.20;;;;;;;7.65;95.22;98961.19;5035358;28;20806;-48
2021/12/05 13:21:31;;;;;;;0.30;0.20;;;;;;;7.63;94.58;98960.41;5035102;28;20944;-48
2021/12/05 13:23:58;;;;;;;0.30;0.20;;;;;;;7.52;94.57;98971.38;5035330;28;20451;-48
2021/12/05 13:26:34;;;;;;;0.30;0.20;;;;;;;7.42;94.11;98968.25;5035193;28;20443;-48
2021/12/05 13:29:29;;;;;;;0.30;0.10;;;;;;;7.46;95.95;98979.56;5035150;28;20467;-48
2021/12/05 13:32:04;;;;;;;0.30;0.20;;;;;;;7.43;95.19;98983.19;5034944;28;20443;-49
2021/12/05 13:34:34;;;;;;;0.30;0.20;;;;;;;7.42;96.05;98983.25;5042555;28;20446;-48
2021/12/05 13:37:06;;;;;;;0.30;0.20;;;;;;;7.42;95.84;98973.53;5040261;28;20545;-47
2021/12/05 13:40:06;;;;;;;0.30;0.20;;;;;;;7.51;95.38;98976.72;5034909;28;20479;-48
2021/12/05 13:42:42;;;;;;;0.20;0.13;;;;;;;7.41;94.42;98977.09;5030055;28;20452;-48
2021/12/05 13:45:14;;;;;;;0.20;0.20;;;;;;;7.40;94.72;98978.00;5034734;28;20448;-48
2021/12/05 13:47:53;;;;;;;0.30;0.20;;;;;;;7.46;95.20;98992.78;5033638;28;20448;-48
2021/12/05 13:50:22;;;;;;;0.30;0.20;;;;;;;7.46;94.82;98973.41;5032179;28;20509;-48
2021/12/05 13:53:07;;;;;;;0.30;0.20;;;;;;;7.32;95.34;98998.56;5034494;28;21101;-48
2021/12/05 13:55:37;;;;;;;0.30;0.20;;;;;;;7.42;94.43;98997.31;5021869;28;20451;-48
2021/12/05 13:58:16;;;;;;;0.30;0.20;;;;;;;7.21;94.85;98999.84;5034926;28;20467;-48
2021/12/05 14:00:51;;;;;;;0.30;0.20;;;;;;;7.50;93.76;99002.31;5034662;28;20451;-48
2021/12/05 14:03:40;;;;;;;0.30;0.20;;;;;;;7.37;93.63;98995.75;5034690;28;20436;-48
2021/12/05 14:06:37;;;;;;;0.30;0.20;;;;;;;7.51;92.87;98998.75;5034532;28;20451;-48
2021/12/05 14:09:26;;;;;;;0.20;0.20;;;;;;;7.36;93.05;99001.94;5034350;28;20464;-48
2021/12/05 14:11:56;;;;;;;0.30;0.20;;;;;;;7.30;92.23;99010.13;5023119;28;20525;-48
2021/12/05 14:14:35;;;;;;;0.30;0.20;;;;;;;7.39;92.06;99007.13;5034887;28;20530;-48
2021/12/05 14:17:15;;;;;;;0.30;0.20;;;;;;;7.55;91.60;99013.59;5034580;28;20487;-49
2021/12/05 14:19:48;;;;;;;0.30;0.20;;;;;;;7.49;90.68;99020.88;5034204;28;20475;-48
2021/12/05 14:22:18;;;;;;;0.20;0.20;;;;;;;7.51;90.09;99024.31;5034347;28;20455;-47
2021/12/05 14:24:49;;;;;;;0.30;0.20;;;;;;;7.38;91.17;99030.03;5034462;28;20450;-48
2021/12/05 14:27:19;;;;;;;0.30;0.20;;;;;;;7.41;91.95;99034.38;5033889;28;20440;-49
2021/12/05 14:29:47;;;;;;;0.20;0.20;;;;;;;7.29;91.80;99048.91;5034205;28;20521;-48
2021/12/05 14:32:27;;;;;;;0.20;0.20;;;;;;;7.42;92.34;99044.03;5033785;28;20479;-48
2021/12/05 14:34:59;;;;;;;0.30;0.20;;;;;;;7.25;92.29;99046.38;5044403;28;20439;-48
2021/12/05 14:37:28;;;;;;;0.30;0.20;;;;;;;7.31;91.72;99046.19;5035451;28;20554;-48
2021/12/05 14:39:59;;;;;;;0.30;0.20;;;;;;;7.27;92.17;99048.09;5033571;28;20975;-48
2021/12/05 14:42:29;;;;;;;0.30;0.10;;;;;;;7.17;92.09;99057.25;5033417;28;20443;-48
2021/12/05 14:45:06;;;;;;;0.30;0.20;;;;;;;7.26;92.36;99061.31;5033399;28;20506;-48
2021/12/05 14:47:35;;;;;;;0.30;0.20;;;;;;;7.19;93.54;99063.34;5034069;28;20490;-47
2021/12/05 14:50:09;;;;;;;0.20;0.10;;;;;;;7.13;94.22;99071.50;5033625;28;20525;-48
2021/12/05 14:52:39;;;;;;;0.30;0.20;;;;;;;7.05;93.14;99063.81;5033480;28;20505;-47
2021/12/05 14:55:14;;;;;;;0.30;0.20;;;;;;;7.05;94.17;99074.38;5033498;28;20474;-48
2021/12/05 14:57:45;;;;;;;0.30;0.20;;;;;;;7.05;94.77;99076.16;5033605;28;20541;-48
2021/12/05 15:00:14;;;;;;;0.20;0.20;;;;;;;7.01;94.53;99077.19;5033782;28;20451;-48
2021/12/05 15:02:41;;;;;;;0.30;0.20;;;;;;;6.98;95.61;99083.41;5033481;28;20455;-48
2021/12/05 15:05:12;;;;;;;0.30;0.20;;;;;;;6.87;95.08;99084.72;5033200;28;20448;-48
2021/12/05 15:07:38;;;;;;;0.20;0.20;;;;;;;6.91;96.30;99092.47;5032947;28;20467;-48
2021/12/05 15:10:07;;;;;;;0.30;0.20;;;;;;;6.91;97.21;99102.19;5033388;28;21010;-48
2021/12/05 15:12:35;;;;;;;0.30;0.20;;;;;;;6.89;96.60;99104.88;5033236;28;20452;-48
2021/12/05 15:15:08;;;;;;;2.40;2.30;;;;;;;6.81;95.37;99096.31;5033257;28;20447;-48
2021/12/05 15:17:37;;;;;;;0.20;0.20;;;;;;;6.87;95.68;99105.84;5032803;28;20899;-48
2021/12/05 15:20:14;;;;;;;0.30;0.20;;;;;;;6.76;96.59;99114.09;5032771;28;20979;-48
2021/12/05 15:22:43;;;;;;;0.23;0.10;;;;;;;6.74;95.78;99111.53;5032883;28;20852;-48
2021/12/05 15:25:15;;;;;;;0.30;0.23;;;;;;;6.72;95.67;99118.63;5033042;28;20456;-48
2021/12/05 15:27:43;;;;;;;0.20;0.20;;;;;;;6.71;96.27;99122.16;5032904;28;20454;-48
2021/12/05 15:30:17;;;;;;;0.20;0.20;;;;;;;6.61;96.37;99122.50;5033012;28;20478;-48
2021/12/05 15:32:45;;;;;;;0.20;0.17;;;;;;;6.58;98.09;99136.69;5018621;28;20931;-48
2021/12/05 15:35:16;;;;;;;0.20;0.20;;;;;;;6.54;98.00;99135.88;5045827;28;20807;-48
2021/12/05 15:37:50;;;;;;;0.30;0.20;;;;;;;6.44;97.66;99131.81;5020358;28;20492;-49
2021/12/05 15:40:17;;;;;;;0.23;0.20;;;;;;;6.46;96.95;99140.56;5032749;28;20447;-48
2021/12/05 15:42:44;;;;;;;0.27;0.20;;;;;;;6.39;97.84;99141.63;5032703;28;20482;-47
2021/12/05 15:45:14;;;;;;;0.30;0.20;;;;;;;6.37;97.12;99137.31;5032523;28;20452;-48
2021/12/05 15:47:41;;;;;;;0.20;0.20;;;;;;;6.26;97.91;99142.06;5033062;28;20444;-48
2021/12/05 15:50:12;;;;;;;0.30;0.20;;;;;;;6.14;99.41;99152.03;5032771;28;20799;-48
2021/12/05 15:52:50;;;;;;;0.20;0.20;;;;;;;6.09;100.00;99151.34;5032723;28;20471;-48
2021/12/05 15:55:50;;;;;;;0.20;0.20;;;;;;;5.99;99.18;99159.53;5032631;28;20455;-48
2021/12/05 15:58:30;;;;;;;0.20;0.17;;;;;;;5.91;100.00;99160.63;5009565;28;20569;-48
2021/12/05 16:01:12;;;;;;;0.20;0.20;;;;;;;5.91;100.00;99165.06;5032642;28;20451;-48
2021/12/05 16:03:54;;;;;;;0.20;0.20;;;;;;;5.94;100.00;99165.81;5020220;28;20451;-47
2021/12/05 16:06:37;;;;;;;0.20;0.20;;;;;;;5.91;100.00;99165.06;5032316;28;20444;-48
2021/12/05 16:09:15;;;;;;;0.20;0.10;;;;;;;5.87;100.00;99168.63;5032679;28;20471;-48
2021/12/05 16:11:42;;;;;;;0.20;0.10;;;;;;;5.92;100.00;99172.06;5032143;28;20439;-48
2021/12/05 16:14:09;;;;;;;0.20;0.20;;;;;;;5.89;100.00;99164.16;5032489;28;20455;-48
2021/12/05 16:16:36;;;;;;;0.20;0.20;;;;;;;5.88;100.00;99173.84;5032014;28;21000;-48
2021/12/05 16:19:09;;;;;;;0.20;0.17;;;;;;;5.83;100.00;99173.13;5032393;28;20893;-49
2021/12/05 16:21:38;;;;;;;0.30;0.30;;;;;;;5.56;100.00;99182.63;5031616;28;20444;-48
2021/12/05 16:24:17;;;;;;;0.20;0.10;;;;;;;5.47;100.00;99185.50;5032203;28;20490;-48
2021/12/05 16:26:46;;;;;;;0.20;0.20;;;;;;;5.47;100.00;99190.78;5032490;28;20454;-48
2021/12/05 16:29:17;;;;;;;0.20;0.20;;;;;;;5.50;100.00;99192.50;5032352;28;20468;-48
2021/12/05 16:31:47;;;;;;;0.20;0.17;;;;;;;5.39;100.00;99190.13;5032473;28;20976;-49
2021/12/05 16:34:19;;;;;;;0.20;0.20;;;;;;;5.39;100.00;99189.25;5036512;28;20462;-49
2021/12/05 16:36:53;;;;;;;0.20;0.10;;;;;;;5.43;100.00;99198.81;5038365;28;20491;-50
2021/12/05 16:39:27;;;;;;;0.20;0.20;;;;;;;5.22;100.00;99205.50;5020033;28;20495;-48
2021/12/05 16:42:02;;;;;;;0.20;0.10;;;;;;;5.16;100.00;99208.25;5032187;28;20443;-49
2021/12/05 16:44:33;;;;;;;0.20;0.20;;;;;;;5.14;100.00;99207.44;5032693;28;20454;-49
2021/12/05 16:47:09;;;;;;;0.20;0.10;;;;;;;5.13;100.00;99205.69;5032181;28;20447;-49
2021/12/05 16:49:40;;;;;;;0.30;0.23;;;;;;;4.98;100.00;99205.16;5032265;28;20483;-49
2021/12/05 16:52:09;;;;;;;0.20;0.10;;;;;;;4.98;100.00;99210.44;5032747;28;20435;-49
2021/12/05 16:54:48;;;;;;;0.20;0.13;;;;;;;4.84;100.00;99204.63;5031147;28;20505;-49
2021/12/05 16:57:23;;;;;;;0.20;0.13;;;;;;;4.67;100.00;99214.69;5019563;28;20907;-50
2021/12/05 16:59:53;;;;;;;0.20;0.10;;;;;;;4.66;100.00;99218.19;5032282;28;20479;-49
2021/12/05 17:02:24;;;;;;;0.20;0.17;;;;;;;4.56;100.00;99214.03;5032193;28;20866;-49
2021/12/05 17:05:04;;;;;;;0.20;0.20;;;;;;;4.44;100.00;99213.41;5032478;28;20470;-49
2021/12/05 17:07:57;;;;;;;0.20;0.10;;;;;;;4.19;100.00;99229.72;5031045;28;20494;-50
2021/12/05 17:10:24;;;;;;;0.20;0.10;;;;;;;4.07;100.00;99228.19;5022119;28;20448;-49
2021/12/05 17:12:56;;;;;;;0.20;0.10;;;;;;;4.15;100.00;99223.66;5032174;28;20451;-49
2021/12/05 17:15:27;;;;;;;0.20;0.20;;;;;;;4.15;100.00;99218.38;5032447;28;20451;-49
2021/12/05 17:18:02;;;;;;;0.20;0.10;;;;;;;3.94;100.00;99232.81;5032219;28;20866;-49
2021/12/05 17:20:36;;;;;;;0.20;0.10;;;;;;;3.63;100.00;99224.63;5032665;28;20470;-49
2021/12/05 17:23:06;;;;;;;0.20;0.13;;;;;;;3.62;100.00;99227.28;5020641;28;20525;-49
2021/12/05 17:25:32;;;;;;;0.20;0.10;;;;;;;3.47;100.00;99241.56;5035850;28;20451;-49
2021/12/05 17:28:01;;;;;;;0.20;0.13;;;;;;;3.55;100.00;99244.91;5035706;28;20452;-49
2021/12/05 17:30:28;;;;;;;0.20;0.20;;;;;;;3.52;100.00;99235.31;5035675;28;20452;-49
2021/12/05 17:32:55;;;;;;;0.20;0.10;;;;;;;3.72;100.00;99237.63;5035497;28;20452;-49
2021/12/05 17:35:26;;;;;;;0.20;0.20;;;;;;;3.81;100.00;99239.19;5048622;28;20525;-49
2021/12/05 17:37:57;;;;;;;0.20;0.10;;;;;;;4.04;100.00;99249.28;5035548;28;20491;-50
2021/12/05 17:40:30;;;;;;;0.20;0.10;;;;;;;4.06;100.00;99255.38;5035955;28;20447;-48
2021/12/05 17:42:57;;;;;;;0.20;0.10;;;;;;;4.14;100.00;99258.72;5035673;28;20493;-48
2021/12/05 17:45:25;;;;;;;0.20;0.13;;;;;;;4.08;100.00;99259.69;5034624;28;20455;-49
2021/12/05 17:47:52;;;;;;;0.20;0.10;;;;;;;4.25;100.00;99266.38;5035829;28;20506;-49
2021/12/05 17:50:20;;;;;;;0.70;0.67;;;;;;;4.06;100.00;99269.38;5034467;28;20464;-49
2021/12/05 17:52:49;;;;;;;0.20;0.20;;;;;;;4.24;100.00;99269.91;5035872;28;20456;-49